sensor_id;sensor_type;location;lat;lon;timestamp;P1;durP1;ratioP1;P2;durP2;ratioP2
50569;SDS011;36525;49.398;7.614;2023-04-01T00:00:01;6.15;;;1.20;;
50569;SDS011;36525;49.398;7.614;2023-04-01T00:02:28;7.85;;;1.25;;
50569;SDS011;36525;49.398;7.614;2023-04-01T00:04:58;7.45;;;1.27;;
50569;SDS011;36525;49.398;7.614;2023-04-01T00:07:25;11.55;;;1.83;;
50569;SDS011;36525;49.398;7.614;2023-04-01T00:09:56;6.97;;;1.17;;
50569;SDS011;36525;49.398;7.614;2023-04-01T00:12:24;10.13;;;1.10;;
50569;SDS011;36525;49.398;7.614;2023-04-01T00:14:52;6.63;;;1.00;;
50569;SDS011;36525;49.398;7.614;2023-04-01T00:17:19;5.63;;;1.10;;
50569;SDS011;36525;49.398;7.614;2023-04-01T00:19:47;5.68;;;1.10;;
50569;SDS011;36525;49.398;7.614;2023-04-01T00:22:15;8.20;;;1.10;;
50569;SDS011;36525;49.398;7.614;2023-04-01T00:24:43;7.10;;;1.48;;
50569;SDS011;36525;49.398;7.614;2023-04-01T00:27:10;7.78;;;1.38;;
50569;SDS011;36525;49.398;7.614;2023-04-01T00:29:43;9.48;;;1.42;;
50569;SDS011;36525;49.398;7.614;2023-04-01T00:32:16;7.57;;;1.77;;
50569;SDS011;36525;49.398;7.614;2023-04-01T00:34:43;5.75;;;0.77;;
50569;SDS011;36525;49.398;7.614;2023-04-01T00:37:11;6.45;;;1.23;;
50569;SDS011;36525;49.398;7.614;2023-04-01T00:39:38;6.45;;;0.90;;
50569;SDS011;36525;49.398;7.614;2023-04-01T00:42:06;7.40;;;1.20;;
50569;SDS011;36525;49.398;7.614;2023-04-01T00:44:36;6.53;;;0.98;;
50569;SDS011;36525;49.398;7.614;2023-04-01T00:47:05;5.95;;;1.08;;
50569;SDS011;36525;49.398;7.614;2023-04-01T00:49:35;8.05;;;1.13;;
50569;SDS011;36525;49.398;7.614;2023-04-01T00:52:14;8.77;;;1.30;;
50569;SDS011;36525;49.398;7.614;2023-04-01T00:57:20;6.25;;;1.17;;
50569;SDS011;36525;49.398;7.614;2023-04-01T00:59:55;7.60;;;0.98;;
50569;SDS011;36525;49.398;7.614;2023-04-01T01:02:23;11.52;;;1.63;;
50569;SDS011;36525;49.398;7.614;2023-04-01T01:04:51;7.53;;;1.50;;
50569;SDS011;36525;49.398;7.614;2023-04-01T01:10:31;7.43;;;1.20;;
50569;SDS011;36525;49.398;7.614;2023-04-01T01:15:58;7.90;;;1.23;;
50569;SDS011;36525;49.398;7.614;2023-04-01T01:18:44;11.75;;;1.70;;
50569;SDS011;36525;49.398;7.614;2023-04-01T01:22:04;10.52;;;1.35;;
50569;SDS011;36525;49.398;7.614;2023-04-01T01:27:43;15.13;;;1.60;;
50569;SDS011;36525;49.398;7.614;2023-04-01T01:36:59;8.38;;;1.40;;
50569;SDS011;36525;49.398;7.614;2023-04-01T01:39:33;8.05;;;1.42;;
50569;SDS011;36525;49.398;7.614;2023-04-01T01:42:06;9.57;;;1.40;;
50569;SDS011;36525;49.398;7.614;2023-04-01T01:44:38;13.23;;;2.10;;
50569;SDS011;36525;49.398;7.614;2023-04-01T01:47:08;8.35;;;1.17;;
50569;SDS011;36525;49.398;7.614;2023-04-01T01:49:36;7.65;;;1.30;;
50569;SDS011;36525;49.398;7.614;2023-04-01T01:52:06;10.85;;;1.58;;
50569;SDS011;36525;49.398;7.614;2023-04-01T01:54:34;9.57;;;1.65;;
50569;SDS011;36525;49.398;7.614;2023-04-01T01:57:06;11.35;;;1.50;;
50569;SDS011;36525;49.398;7.614;2023-04-01T01:59:38;10.90;;;1.33;;
50569;SDS011;36525;49.398;7.614;2023-04-01T02:02:08;10.52;;;1.40;;
50569;SDS011;36525;49.398;7.614;2023-04-01T02:04:38;8.93;;;1.42;;
50569;SDS011;36525;49.398;7.614;2023-04-01T02:07:10;9.05;;;1.30;;
50569;SDS011;36525;49.398;7.614;2023-04-01T02:09:50;11.60;;;1.58;;
50569;SDS011;36525;49.398;7.614;2023-04-01T02:12:18;11.75;;;2.20;;
50569;SDS011;36525;49.398;7.614;2023-04-01T02:14:55;15.65;;;1.95;;
50569;SDS011;36525;49.398;7.614;2023-04-01T02:17:35;10.80;;;1.60;;
50569;SDS011;36525;49.398;7.614;2023-04-01T02:20:13;10.60;;;1.77;;
50569;SDS011;36525;49.398;7.614;2023-04-01T02:22:46;10.27;;;1.50;;
50569;SDS011;36525;49.398;7.614;2023-04-01T02:25:21;16.15;;;2.08;;
50569;SDS011;36525;49.398;7.614;2023-04-01T02:27:53;13.50;;;2.10;;
50569;SDS011;36525;49.398;7.614;2023-04-01T02:30:23;12.18;;;2.10;;
50569;SDS011;36525;49.398;7.614;2023-04-01T02:32:55;10.93;;;1.40;;
50569;SDS011;36525;49.398;7.614;2023-04-01T02:35:24;9.57;;;1.45;;
50569;SDS011;36525;49.398;7.614;2023-04-01T02:37:54;9.05;;;1.65;;
50569;SDS011;36525;49.398;7.614;2023-04-01T02:40:22;9.07;;;1.25;;
50569;SDS011;36525;49.398;7.614;2023-04-01T02:42:50;13.80;;;2.13;;
50569;SDS011;36525;49.398;7.614;2023-04-01T02:45:17;10.70;;;1.27;;
50569;SDS011;36525;49.398;7.614;2023-04-01T02:47:45;7.55;;;1.70;;
50569;SDS011;36525;49.398;7.614;2023-04-01T02:50:12;8.98;;;1.73;;
50569;SDS011;36525;49.398;7.614;2023-04-01T02:52:39;11.45;;;1.40;;
50569;SDS011;36525;49.398;7.614;2023-04-01T02:55:06;12.18;;;1.75;;
50569;SDS011;36525;49.398;7.614;2023-04-01T02:57:33;10.70;;;1.48;;
50569;SDS011;36525;49.398;7.614;2023-04-01T03:00:01;10.65;;;2.28;;
50569;SDS011;36525;49.398;7.614;2023-04-01T03:02:29;10.35;;;1.38;;
50569;SDS011;36525;49.398;7.614;2023-04-01T03:04:56;13.43;;;2.05;;
50569;SDS011;36525;49.398;7.614;2023-04-01T03:07:23;10.32;;;1.52;;
50569;SDS011;36525;49.398;7.614;2023-04-01T03:09:51;10.43;;;1.45;;
50569;SDS011;36525;49.398;7.614;2023-04-01T03:12:18;12.57;;;1.85;;
50569;SDS011;36525;49.398;7.614;2023-04-01T03:14:46;16.73;;;1.90;;
50569;SDS011;36525;49.398;7.614;2023-04-01T03:17:13;12.82;;;1.77;;
50569;SDS011;36525;49.398;7.614;2023-04-01T03:19:41;8.00;;;1.55;;
50569;SDS011;36525;49.398;7.614;2023-04-01T03:22:10;11.35;;;1.70;;
50569;SDS011;36525;49.398;7.614;2023-04-01T03:24:37;10.38;;;1.52;;
50569;SDS011;36525;49.398;7.614;2023-04-01T03:27:04;7.75;;;1.70;;
50569;SDS011;36525;49.398;7.614;2023-04-01T03:29:36;8.93;;;1.60;;
50569;SDS011;36525;49.398;7.614;2023-04-01T03:32:03;12.80;;;1.70;;
50569;SDS011;36525;49.398;7.614;2023-04-01T03:34:31;10.98;;;1.48;;
50569;SDS011;36525;49.398;7.614;2023-04-01T03:36:58;13.52;;;1.88;;
50569;SDS011;36525;49.398;7.614;2023-04-01T03:39:25;8.05;;;1.10;;
50569;SDS011;36525;49.398;7.614;2023-04-01T03:41:53;11.90;;;1.90;;
50569;SDS011;36525;49.398;7.614;2023-04-01T03:44:26;12.52;;;1.58;;
50569;SDS011;36525;49.398;7.614;2023-04-01T03:46:57;8.85;;;1.50;;
50569;SDS011;36525;49.398;7.614;2023-04-01T03:49:24;9.77;;;2.05;;
50569;SDS011;36525;49.398;7.614;2023-04-01T03:51:51;14.38;;;2.28;;
50569;SDS011;36525;49.398;7.614;2023-04-01T03:54:19;7.20;;;1.50;;
50569;SDS011;36525;49.398;7.614;2023-04-01T03:56:47;8.82;;;1.70;;
50569;SDS011;36525;49.398;7.614;2023-04-01T03:59:14;11.18;;;1.90;;
50569;SDS011;36525;49.398;7.614;2023-04-01T04:01:42;8.88;;;1.48;;
50569;SDS011;36525;49.398;7.614;2023-04-01T04:04:12;7.57;;;1.42;;
50569;SDS011;36525;49.398;7.614;2023-04-01T04:06:41;7.68;;;1.10;;
50569;SDS011;36525;49.398;7.614;2023-04-01T04:09:09;9.35;;;1.60;;
50569;SDS011;36525;49.398;7.614;2023-04-01T04:11:36;10.70;;;1.23;;
50569;SDS011;36525;49.398;7.614;2023-04-01T04:14:03;11.50;;;1.52;;
50569;SDS011;36525;49.398;7.614;2023-04-01T04:16:30;10.15;;;1.80;;
50569;SDS011;36525;49.398;7.614;2023-04-01T04:19:03;8.77;;;1.50;;
50569;SDS011;36525;49.398;7.614;2023-04-01T04:21:30;11.55;;;1.23;;
50569;SDS011;36525;49.398;7.614;2023-04-01T04:23:59;9.05;;;1.20;;
50569;SDS011;36525;49.398;7.614;2023-04-01T04:26:27;13.02;;;1.90;;
50569;SDS011;36525;49.398;7.614;2023-04-01T04:28:55;7.38;;;1.10;;
50569;SDS011;36525;49.398;7.614;2023-04-01T04:31:23;8.07;;;1.45;;
50569;SDS011;36525;49.398;7.614;2023-04-01T04:33:52;8.20;;;1.02;;
50569;SDS011;36525;49.398;7.614;2023-04-01T04:36:20;11.73;;;1.77;;
50569;SDS011;36525;49.398;7.614;2023-04-01T04:38:48;6.70;;;1.30;;
50569;SDS011;36525;49.398;7.614;2023-04-01T04:41:16;8.80;;;1.50;;
50569;SDS011;36525;49.398;7.614;2023-04-01T04:43:50;17.85;;;1.70;;
50569;SDS011;36525;49.398;7.614;2023-04-01T04:46:23;10.77;;;1.60;;
50569;SDS011;36525;49.398;7.614;2023-04-01T04:48:54;8.38;;;1.30;;
50569;SDS011;36525;49.398;7.614;2023-04-01T04:51:21;8.73;;;1.17;;
50569;SDS011;36525;49.398;7.614;2023-04-01T04:53:49;9.32;;;1.55;;
50569;SDS011;36525;49.398;7.614;2023-04-01T04:56:21;11.13;;;1.55;;
50569;SDS011;36525;49.398;7.614;2023-04-01T04:58:51;4.85;;;1.33;;
50569;SDS011;36525;49.398;7.614;2023-04-01T05:01:19;11.15;;;1.70;;
50569;SDS011;36525;49.398;7.614;2023-04-01T05:03:46;10.02;;;1.30;;
50569;SDS011;36525;49.398;7.614;2023-04-01T05:06:15;6.18;;;1.10;;
50569;SDS011;36525;49.398;7.614;2023-04-01T05:08:48;6.03;;;1.27;;
50569;SDS011;36525;49.398;7.614;2023-04-01T05:11:16;8.70;;;1.48;;
50569;SDS011;36525;49.398;7.614;2023-04-01T05:13:45;6.88;;;1.13;;
50569;SDS011;36525;49.398;7.614;2023-04-01T05:16:14;8.35;;;1.48;;
50569;SDS011;36525;49.398;7.614;2023-04-01T05:18:45;6.60;;;1.43;;
50569;SDS011;36525;49.398;7.614;2023-04-01T05:21:14;7.13;;;1.23;;
50569;SDS011;36525;49.398;7.614;2023-04-01T05:23:42;10.10;;;1.55;;
50569;SDS011;36525;49.398;7.614;2023-04-01T05:26:11;7.25;;;1.40;;
50569;SDS011;36525;49.398;7.614;2023-04-01T05:28:40;9.35;;;1.70;;
50569;SDS011;36525;49.398;7.614;2023-04-01T05:31:08;11.32;;;1.50;;
50569;SDS011;36525;49.398;7.614;2023-04-01T05:33:36;8.82;;;1.25;;
50569;SDS011;36525;49.398;7.614;2023-04-01T05:36:07;6.72;;;1.38;;
50569;SDS011;36525;49.398;7.614;2023-04-01T05:38:41;9.60;;;1.70;;
50569;SDS011;36525;49.398;7.614;2023-04-01T05:41:09;9.00;;;1.65;;
50569;SDS011;36525;49.398;7.614;2023-04-01T05:43:36;9.98;;;1.50;;
50569;SDS011;36525;49.398;7.614;2023-04-01T05:46:05;9.68;;;1.92;;
50569;SDS011;36525;49.398;7.614;2023-04-01T05:48:33;8.45;;;1.65;;
50569;SDS011;36525;49.398;7.614;2023-04-01T05:51:02;6.88;;;1.70;;
50569;SDS011;36525;49.398;7.614;2023-04-01T05:53:31;10.85;;;1.90;;
50569;SDS011;36525;49.398;7.614;2023-04-01T05:56:02;9.88;;;2.38;;
50569;SDS011;36525;49.398;7.614;2023-04-01T05:58:30;9.93;;;1.42;;
50569;SDS011;36525;49.398;7.614;2023-04-01T06:01:06;5.60;;;1.38;;
50569;SDS011;36525;49.398;7.614;2023-04-01T06:03:41;6.80;;;1.50;;
50569;SDS011;36525;49.398;7.614;2023-04-01T06:09:26;8.10;;;1.55;;
50569;SDS011;36525;49.398;7.614;2023-04-01T06:17:43;4.78;;;1.10;;
50569;SDS011;36525;49.398;7.614;2023-04-01T06:26:48;7.28;;;1.13;;
50569;SDS011;36525;49.398;7.614;2023-04-01T06:32:26;5.80;;;0.82;;
50569;SDS011;36525;49.398;7.614;2023-04-01T06:35:17;3.35;;;0.80;;
50569;SDS011;36525;49.398;7.614;2023-04-01T06:41:00;4.72;;;0.75;;
50569;SDS011;36525;49.398;7.614;2023-04-01T06:44:28;4.78;;;0.93;;
50569;SDS011;36525;49.398;7.614;2023-04-01T06:50:30;3.45;;;0.82;;
50569;SDS011;36525;49.398;7.614;2023-04-01T06:56:01;7.13;;;1.02;;
50569;SDS011;36525;49.398;7.614;2023-04-01T06:58:56;3.15;;;0.98;;
50569;SDS011;36525;49.398;7.614;2023-04-01T07:05:06;4.13;;;1.10;;
50569;SDS011;36525;49.398;7.614;2023-04-01T07:07:53;3.42;;;0.68;;
50569;SDS011;36525;49.398;7.614;2023-04-01T07:10:34;4.25;;;0.88;;
50569;SDS011;36525;49.398;7.614;2023-04-01T07:13:26;2.97;;;0.73;;
50569;SDS011;36525;49.398;7.614;2023-04-01T07:16:12;2.80;;;0.70;;
50569;SDS011;36525;49.398;7.614;2023-04-01T07:18:52;4.35;;;0.80;;
50569;SDS011;36525;49.398;7.614;2023-04-01T07:21:52;3.90;;;0.75;;
50569;SDS011;36525;49.398;7.614;2023-04-01T07:24:36;2.25;;;0.60;;
50569;SDS011;36525;49.398;7.614;2023-04-01T07:27:12;3.38;;;0.80;;
50569;SDS011;36525;49.398;7.614;2023-04-01T07:29:41;6.85;;;0.70;;
50569;SDS011;36525;49.398;7.614;2023-04-01T07:32:43;8.80;;;1.13;;
50569;SDS011;36525;49.398;7.614;2023-04-01T07:35:23;3.78;;;0.85;;
50569;SDS011;36525;49.398;7.614;2023-04-01T07:40:43;4.05;;;0.70;;
50569;SDS011;36525;49.398;7.614;2023-04-01T07:50:27;1.75;;;0.60;;
50569;SDS011;36525;49.398;7.614;2023-04-01T07:55:46;1.58;;;0.52;;
50569;SDS011;36525;49.398;7.614;2023-04-01T08:07:19;2.30;;;0.60;;
50569;SDS011;36525;49.398;7.614;2023-04-01T08:09:55;4.57;;;0.80;;
50569;SDS011;36525;49.398;7.614;2023-04-01T08:15:56;2.75;;;0.68;;
50569;SDS011;36525;49.398;7.614;2023-04-01T08:18:46;1.67;;;0.68;;
50569;SDS011;36525;49.398;7.614;2023-04-01T08:21:23;3.65;;;0.70;;
50569;SDS011;36525;49.398;7.614;2023-04-01T08:23:56;1.42;;;0.60;;
50569;SDS011;36525;49.398;7.614;2023-04-01T08:28:57;1.95;;;0.57;;
50569;SDS011;36525;49.398;7.614;2023-04-01T08:34:17;2.47;;;0.68;;
50569;SDS011;36525;49.398;7.614;2023-04-01T08:36:52;1.70;;;0.65;;
50569;SDS011;36525;49.398;7.614;2023-04-01T08:39:32;2.05;;;0.65;;
50569;SDS011;36525;49.398;7.614;2023-04-01T08:42:12;1.52;;;0.50;;
50569;SDS011;36525;49.398;7.614;2023-04-01T08:48:19;2.00;;;0.43;;
50569;SDS011;36525;49.398;7.614;2023-04-01T09:09:02;0.98;;;0.57;;
50569;SDS011;36525;49.398;7.614;2023-04-01T09:27:54;1.75;;;0.77;;
50569;SDS011;36525;49.398;7.614;2023-04-01T09:30:33;2.78;;;0.80;;
50569;SDS011;36525;49.398;7.614;2023-04-01T09:36:45;4.20;;;1.00;;
50569;SDS011;36525;49.398;7.614;2023-04-01T09:39:18;2.40;;;0.80;;
50569;SDS011;36525;49.398;7.614;2023-04-01T09:45:23;2.78;;;0.60;;
50569;SDS011;36525;49.398;7.614;2023-04-01T10:05:41;3.17;;;0.50;;
50569;SDS011;36525;49.398;7.614;2023-04-01T10:08:29;1.67;;;0.60;;
50569;SDS011;36525;49.398;7.614;2023-04-01T10:18:24;2.75;;;0.70;;
50569;SDS011;36525;49.398;7.614;2023-04-01T10:21:45;1.60;;;0.40;;
50569;SDS011;36525;49.398;7.614;2023-04-01T10:36:51;0.38;;;0.30;;
50569;SDS011;36525;49.398;7.614;2023-04-01T10:39:34;0.85;;;0.40;;
50569;SDS011;36525;49.398;7.614;2023-04-01T10:56:42;3.13;;;0.43;;
50569;SDS011;36525;49.398;7.614;2023-04-01T11:08:24;1.75;;;0.60;;
50569;SDS011;36525;49.398;7.614;2023-04-01T11:29:23;3.92;;;1.08;;
50569;SDS011;36525;49.398;7.614;2023-04-01T11:37:46;1.23;;;0.40;;
50569;SDS011;36525;49.398;7.614;2023-04-01T11:40:55;1.08;;;0.57;;
50569;SDS011;36525;49.398;7.614;2023-04-01T11:44:11;1.75;;;0.35;;
50569;SDS011;36525;49.398;7.614;2023-04-01T11:56:27;3.75;;;1.75;;
50569;SDS011;36525;49.398;7.614;2023-04-01T12:25:38;1.95;;;0.57;;
50569;SDS011;36525;49.398;7.614;2023-04-01T12:34:53;2.38;;;0.60;;
50569;SDS011;36525;49.398;7.614;2023-04-01T12:50:09;0.82;;;0.40;;
50569;SDS011;36525;49.398;7.614;2023-04-01T13:13:00;0.70;;;0.50;;
50569;SDS011;36525;49.398;7.614;2023-04-01T13:16:11;1.98;;;0.50;;
50569;SDS011;36525;49.398;7.614;2023-04-01T13:25:03;2.80;;;0.82;;
50569;SDS011;36525;49.398;7.614;2023-04-01T13:27:44;2.50;;;0.50;;
50569;SDS011;36525;49.398;7.614;2023-04-01T13:30:30;3.08;;;0.68;;
50569;SDS011;36525;49.398;7.614;2023-04-01T13:33:18;2.83;;;0.50;;
50569;SDS011;36525;49.398;7.614;2023-04-01T13:39:49;3.20;;;0.70;;
50569;SDS011;36525;49.398;7.614;2023-04-01T13:42:49;3.10;;;0.60;;
50569;SDS011;36525;49.398;7.614;2023-04-01T13:45:57;3.72;;;0.75;;
50569;SDS011;36525;49.398;7.614;2023-04-01T13:51:59;3.72;;;0.60;;
50569;SDS011;36525;49.398;7.614;2023-04-01T14:33:17;3.30;;;0.93;;
50569;SDS011;36525;49.398;7.614;2023-04-01T14:50:53;0.90;;;0.40;;
50569;SDS011;36525;49.398;7.614;2023-04-01T14:55:58;1.40;;;0.35;;
50569;SDS011;36525;49.398;7.614;2023-04-01T14:58:49;2.38;;;0.70;;
50569;SDS011;36525;49.398;7.614;2023-04-01T15:02:14;2.28;;;0.80;;
50569;SDS011;36525;49.398;7.614;2023-04-01T15:10:10;1.83;;;0.52;;
50569;SDS011;36525;49.398;7.614;2023-04-01T15:13:33;3.20;;;0.50;;
50569;SDS011;36525;49.398;7.614;2023-04-01T15:16:38;2.80;;;0.68;;
50569;SDS011;36525;49.398;7.614;2023-04-01T15:22:32;1.70;;;0.57;;
50569;SDS011;36525;49.398;7.614;2023-04-01T15:25:53;1.88;;;0.60;;
50569;SDS011;36525;49.398;7.614;2023-04-01T15:31:44;1.60;;;0.43;;
50569;SDS011;36525;49.398;7.614;2023-04-01T15:34:26;3.38;;;1.23;;
50569;SDS011;36525;49.398;7.614;2023-04-01T15:40:17;2.58;;;0.60;;
50569;SDS011;36525;49.398;7.614;2023-04-01T15:57:27;2.08;;;0.50;;
50569;SDS011;36525;49.398;7.614;2023-04-01T16:00:28;2.88;;;0.60;;
50569;SDS011;36525;49.398;7.614;2023-04-01T16:18:21;1.15;;;0.60;;
50569;SDS011;36525;49.398;7.614;2023-04-01T16:21:37;3.47;;;1.52;;
50569;SDS011;36525;49.398;7.614;2023-04-01T16:28:03;2.58;;;0.57;;
50569;SDS011;36525;49.398;7.614;2023-04-01T16:36:52;2.95;;;1.05;;
50569;SDS011;36525;49.398;7.614;2023-04-01T16:42:16;2.67;;;0.80;;
50569;SDS011;36525;49.398;7.614;2023-04-01T16:47:58;1.40;;;0.70;;
50569;SDS011;36525;49.398;7.614;2023-04-01T16:53:19;2.15;;;0.50;;
50569;SDS011;36525;49.398;7.614;2023-04-01T17:13:31;2.45;;;0.98;;
50569;SDS011;36525;49.398;7.614;2023-04-01T17:16:39;1.48;;;0.98;;
50569;SDS011;36525;49.398;7.614;2023-04-01T17:22:03;1.40;;;0.50;;
50569;SDS011;36525;49.398;7.614;2023-04-01T17:25:07;1.52;;;0.45;;
50569;SDS011;36525;49.398;7.614;2023-04-01T17:33:42;2.75;;;0.82;;
50569;SDS011;36525;49.398;7.614;2023-04-01T17:36:29;3.40;;;0.82;;
50569;SDS011;36525;49.398;7.614;2023-04-01T17:39:15;1.60;;;0.70;;
50569;SDS011;36525;49.398;7.614;2023-04-01T17:42:14;2.72;;;0.70;;
50569;SDS011;36525;49.398;7.614;2023-04-01T17:56:14;2.55;;;0.80;;
50569;SDS011;36525;49.398;7.614;2023-04-01T18:08:26;2.78;;;0.90;;
50569;SDS011;36525;49.398;7.614;2023-04-01T18:11:22;2.42;;;0.90;;
50569;SDS011;36525;49.398;7.614;2023-04-01T18:26:51;4.55;;;1.80;;
50569;SDS011;36525;49.398;7.614;2023-04-01T18:29:55;5.75;;;1.48;;
50569;SDS011;36525;49.398;7.614;2023-04-01T18:33:03;3.70;;;1.08;;
50569;SDS011;36525;49.398;7.614;2023-04-01T18:35:52;3.13;;;1.13;;
50569;SDS011;36525;49.398;7.614;2023-04-01T18:38:39;4.22;;;1.30;;
50569;SDS011;36525;49.398;7.614;2023-04-01T18:41:21;10.65;;;3.75;;
50569;SDS011;36525;49.398;7.614;2023-04-01T18:44:14;9.10;;;3.67;;
50569;SDS011;36525;49.398;7.614;2023-04-01T18:52:17;3.17;;;1.40;;
50569;SDS011;36525;49.398;7.614;2023-04-01T18:57:53;6.57;;;2.72;;
50569;SDS011;36525;49.398;7.614;2023-04-01T19:00:39;3.67;;;1.02;;
50569;SDS011;36525;49.398;7.614;2023-04-01T19:06:44;8.07;;;2.85;;
50569;SDS011;36525;49.398;7.614;2023-04-01T19:09:30;5.30;;;1.23;;
50569;SDS011;36525;49.398;7.614;2023-04-01T19:12:24;3.03;;;1.13;;
50569;SDS011;36525;49.398;7.614;2023-04-01T19:15:12;3.55;;;0.93;;
50569;SDS011;36525;49.398;7.614;2023-04-01T19:24:35;4.88;;;1.45;;
50569;SDS011;36525;49.398;7.614;2023-04-01T19:27:35;5.10;;;1.67;;
50569;SDS011;36525;49.398;7.614;2023-04-01T19:38:26;4.72;;;1.50;;
50569;SDS011;36525;49.398;7.614;2023-04-01T19:41:16;3.05;;;1.38;;
50569;SDS011;36525;49.398;7.614;2023-04-01T19:52:53;3.50;;;1.20;;
50569;SDS011;36525;49.398;7.614;2023-04-01T19:55:32;3.28;;;0.98;;
50569;SDS011;36525;49.398;7.614;2023-04-01T20:04:48;2.53;;;1.15;;
50569;SDS011;36525;49.398;7.614;2023-04-01T20:07:31;4.72;;;1.45;;
50569;SDS011;36525;49.398;7.614;2023-04-01T20:12:52;4.90;;;1.92;;
50569;SDS011;36525;49.398;7.614;2023-04-01T20:15:43;2.03;;;1.10;;
50569;SDS011;36525;49.398;7.614;2023-04-01T20:18:41;3.75;;;1.30;;
50569;SDS011;36525;49.398;7.614;2023-04-01T20:21:24;3.92;;;1.02;;
50569;SDS011;36525;49.398;7.614;2023-04-01T20:27:10;4.05;;;1.00;;
50569;SDS011;36525;49.398;7.614;2023-04-01T20:30:19;1.88;;;1.00;;
50569;SDS011;36525;49.398;7.614;2023-04-01T20:39:59;4.78;;;1.50;;
50569;SDS011;36525;49.398;7.614;2023-04-01T20:46:11;2.10;;;1.05;;
50569;SDS011;36525;49.398;7.614;2023-04-01T20:51:38;2.70;;;1.35;;
50569;SDS011;36525;49.398;7.614;2023-04-01T20:57:19;3.20;;;1.27;;
50569;SDS011;36525;49.398;7.614;2023-04-01T20:59:56;4.00;;;1.50;;
50569;SDS011;36525;49.398;7.614;2023-04-01T21:25:53;5.20;;;2.38;;
50569;SDS011;36525;49.398;7.614;2023-04-01T21:28:33;5.97;;;2.03;;
50569;SDS011;36525;49.398;7.614;2023-04-01T21:40:24;3.35;;;2.03;;
50569;SDS011;36525;49.398;7.614;2023-04-01T21:43:22;6.07;;;2.47;;
50569;SDS011;36525;49.398;7.614;2023-04-01T21:49:49;12.65;;;3.45;;
50569;SDS011;36525;49.398;7.614;2023-04-01T22:04:43;4.60;;;2.35;;
50569;SDS011;36525;49.398;7.614;2023-04-01T22:07:29;5.53;;;3.08;;
50569;SDS011;36525;49.398;7.614;2023-04-01T22:13:06;6.18;;;2.55;;
50569;SDS011;36525;49.398;7.614;2023-04-01T22:15:48;6.10;;;3.33;;
50569;SDS011;36525;49.398;7.614;2023-04-01T22:19:00;6.47;;;2.50;;
50569;SDS011;36525;49.398;7.614;2023-04-01T22:21:56;5.53;;;1.98;;
50569;SDS011;36525;49.398;7.614;2023-04-01T22:24:49;6.35;;;2.10;;
50569;SDS011;36525;49.398;7.614;2023-04-01T22:32:49;5.28;;;2.10;;
50569;SDS011;36525;49.398;7.614;2023-04-01T22:44:40;7.30;;;2.58;;
50569;SDS011;36525;49.398;7.614;2023-04-01T22:50:17;4.53;;;2.10;;
50569;SDS011;36525;49.398;7.614;2023-04-01T22:52:54;6.18;;;2.50;;
50569;SDS011;36525;49.398;7.614;2023-04-01T22:55:50;4.38;;;1.83;;
50569;SDS011;36525;49.398;7.614;2023-04-01T22:58:21;4.20;;;2.35;;
50569;SDS011;36525;49.398;7.614;2023-04-01T23:01:06;3.92;;;2.40;;
50569;SDS011;36525;49.398;7.614;2023-04-01T23:03:43;3.50;;;1.92;;
50569;SDS011;36525;49.398;7.614;2023-04-01T23:06:17;5.28;;;1.80;;
50569;SDS011;36525;49.398;7.614;2023-04-01T23:12:01;6.07;;;1.58;;
50569;SDS011;36525;49.398;7.614;2023-04-01T23:14:37;2.17;;;1.00;;
50569;SDS011;36525;49.398;7.614;2023-04-01T23:22:55;2.45;;;1.10;;
50569;SDS011;36525;49.398;7.614;2023-04-01T23:26:24;3.50;;;1.02;;
50569;SDS011;36525;49.398;7.614;2023-04-01T23:29:00;3.78;;;1.10;;
50569;SDS011;36525;49.398;7.614;2023-04-01T23:36:41;1.65;;;0.80;;
50569;SDS011;36525;49.398;7.614;2023-04-01T23:39:35;2.53;;;0.90;;
50569;SDS011;36525;49.398;7.614;2023-04-01T23:44:53;6.93;;;1.40;;
50569;SDS011;36525;49.398;7.614;2023-04-01T23:47:44;3.22;;;1.20;;
50569;SDS011;36525;49.398;7.614;2023-04-01T23:50:14;3.45;;;1.70;;
50569;SDS011;36525;49.398;7.614;2023-04-01T23:52:48;2.10;;;1.10;;
50569;SDS011;36525;49.398;7.614;2023-04-01T23:55:27;3.28;;;1.13;;
